createdAt,value
2024-04-16T00:00:06.357Z,17.59
2024-04-16T00:00:39.357Z,17.59
2024-04-16T00:01:10.830Z,17.59
2024-04-16T00:01:42.343Z,17.59
2024-04-16T00:02:13.787Z,17.58
2024-04-16T00:02:45.202Z,17.59
2024-04-16T00:03:16.655Z,17.59
2024-04-16T00:03:48.324Z,17.59
2024-04-16T00:04:19.829Z,17.59
2024-04-16T00:04:51.376Z,17.59
2024-04-16T00:05:22.930Z,17.59
2024-04-16T00:05:54.362Z,17.60
2024-04-16T00:06:25.847Z,17.60
2024-04-16T00:06:57.346Z,17.60
2024-04-16T00:07:28.953Z,17.60
2024-04-16T00:08:00.386Z,17.60
2024-04-16T00:08:31.817Z,17.61
2024-04-16T00:09:03.299Z,17.61
2024-04-16T00:09:34.705Z,17.61
2024-04-16T00:10:06.129Z,17.61
2024-04-16T00:10:37.606Z,17.61
2024-04-16T00:11:09.498Z,17.61
2024-04-16T00:11:40.918Z,17.61
2024-04-16T00:12:12.349Z,17.61
2024-04-16T00:12:43.751Z,17.61
2024-04-16T00:13:15.203Z,17.61
2024-04-16T00:13:46.665Z,17.60
2024-04-16T00:14:18.140Z,17.60
2024-04-16T00:14:49.551Z,17.60
2024-04-16T00:15:21.627Z,17.60
2024-04-16T00:15:53.081Z,17.60
2024-04-16T00:16:24.596Z,17.60
2024-04-16T00:16:56.093Z,17.59
2024-04-16T00:17:27.902Z,17.59
2024-04-16T00:17:59.481Z,17.58
2024-04-16T00:18:31.053Z,17.58
2024-04-16T00:19:03.351Z,17.58
2024-04-16T00:19:34.909Z,17.58
2024-04-16T00:20:07.085Z,17.58
2024-04-16T00:20:38.478Z,17.58
2024-04-16T00:21:09.903Z,17.58
2024-04-16T00:21:41.318Z,17.58
2024-04-16T00:22:12.772Z,17.58
2024-04-16T00:22:44.251Z,17.58
2024-04-16T00:23:15.711Z,17.57
2024-04-16T00:23:47.157Z,17.57
2024-04-16T00:24:19.079Z,17.57
2024-04-16T00:24:50.488Z,17.57
2024-04-16T00:25:21.928Z,17.57
2024-04-16T00:25:53.610Z,17.57
2024-04-16T00:26:25.132Z,17.57
2024-04-16T00:26:56.551Z,17.57
2024-04-16T00:27:27.963Z,17.57
2024-04-16T00:27:59.461Z,17.57
2024-04-16T00:28:31.104Z,17.57
2024-04-16T00:29:02.605Z,17.56
2024-04-16T00:29:34.028Z,17.56
2024-04-16T00:30:06.123Z,17.55
2024-04-16T00:30:37.894Z,17.55
2024-04-16T00:31:09.440Z,17.55
2024-04-16T00:31:40.961Z,17.55
2024-04-16T00:32:12.491Z,17.55
2024-04-16T00:32:44.313Z,17.55
2024-04-16T00:33:15.964Z,17.54
2024-04-16T00:33:47.427Z,17.54
2024-04-16T00:34:18.925Z,17.54
2024-04-16T00:34:50.338Z,17.53
2024-04-16T00:35:21.746Z,17.53
2024-04-16T00:35:53.182Z,17.53
2024-04-16T00:36:24.588Z,17.53
2024-04-16T00:36:56.004Z,17.52
2024-04-16T00:37:28.169Z,17.52
2024-04-16T00:37:59.586Z,17.52
2024-04-16T00:38:31.044Z,17.51
2024-04-16T00:39:02.782Z,17.51
2024-04-16T00:39:34.244Z,17.50
2024-04-16T00:40:06.120Z,17.50
2024-04-16T00:40:37.771Z,17.50
2024-04-16T00:41:09.218Z,17.50
2024-04-16T00:41:40.639Z,17.50
2024-04-16T00:42:12.049Z,17.49
2024-04-16T00:42:43.478Z,17.49
2024-04-16T00:43:19.460Z,17.48
2024-04-16T00:43:51.049Z,17.48
2024-04-16T00:44:23.892Z,17.47
2024-04-16T00:44:55.454Z,17.47
2024-04-16T00:45:27.229Z,17.46
2024-04-16T00:46:00.552Z,17.46
2024-04-16T00:46:32.545Z,17.45
2024-04-16T00:47:04.022Z,17.45
2024-04-16T00:47:36.546Z,17.45
2024-04-16T00:48:08.050Z,17.45
2024-04-16T00:48:39.688Z,17.44
2024-04-16T00:49:11.260Z,17.44
2024-04-16T00:49:43.688Z,17.43
2024-04-16T00:50:15.527Z,17.43
2024-04-16T00:50:47.305Z,17.43
2024-04-16T00:51:19.326Z,17.43
2024-04-16T00:51:52.341Z,17.43
2024-04-16T00:52:23.860Z,17.43
2024-04-16T00:52:55.279Z,17.43
2024-04-16T00:53:29.700Z,17.43
2024-04-16T00:54:02.768Z,17.43
2024-04-16T00:54:35.120Z,17.43
2024-04-16T00:55:07.803Z,17.43
2024-04-16T00:55:40.076Z,17.43
2024-04-16T00:56:11.585Z,17.43
2024-04-16T00:56:43.189Z,17.42
2024-04-16T00:57:14.770Z,17.42
2024-04-16T00:57:46.308Z,17.42
2024-04-16T00:58:19.254Z,17.42
2024-04-16T00:58:51.113Z,17.42
2024-04-16T00:59:26.492Z,17.42
2024-04-16T00:59:59.043Z,17.41
2024-04-16T01:00:30.495Z,17.40
2024-04-16T01:01:02.042Z,17.40
2024-04-16T01:01:38.112Z,17.40
2024-04-16T01:02:09.613Z,17.40
2024-04-16T01:02:41.027Z,17.39
2024-04-16T01:03:12.634Z,17.39
2024-04-16T01:03:44.235Z,17.38
2024-04-16T01:04:15.782Z,17.38
2024-04-16T01:04:47.783Z,17.38
2024-04-16T01:05:19.190Z,17.38
2024-04-16T01:05:51.033Z,17.38
2024-04-16T01:06:25.610Z,17.38
2024-04-16T01:06:57.068Z,17.37
2024-04-16T01:07:28.487Z,17.37
2024-04-16T01:08:00.991Z,17.36
2024-04-16T01:08:32.408Z,17.36
2024-04-16T01:09:03.822Z,17.35
2024-04-16T01:09:35.243Z,17.35
2024-04-16T01:10:06.987Z,17.35
2024-04-16T01:10:39.827Z,17.34
2024-04-16T01:11:22.023Z,17.34
2024-04-16T01:11:57.927Z,17.34
2024-04-16T01:12:29.323Z,17.33
2024-04-16T01:13:00.768Z,17.33
2024-04-16T01:13:32.229Z,17.32
2024-04-16T01:14:03.680Z,17.32
2024-04-16T01:14:35.204Z,17.31
2024-04-16T01:15:06.679Z,17.30
2024-04-16T01:15:38.097Z,17.30
2024-04-16T01:16:09.656Z,17.29
2024-04-16T01:16:41.468Z,17.28
2024-04-16T01:17:12.950Z,17.27
2024-04-16T01:17:44.715Z,17.27
2024-04-16T01:18:16.227Z,17.27
2024-04-16T01:18:47.718Z,17.26
2024-04-16T01:19:19.183Z,17.25
2024-04-16T01:19:50.590Z,17.25
2024-04-16T01:20:22.405Z,17.25
2024-04-16T01:20:54.159Z,17.24
2024-04-16T01:21:25.583Z,17.24
2024-04-16T01:21:56.983Z,17.23
2024-04-16T01:22:29.122Z,17.23
2024-04-16T01:23:00.725Z,17.22
2024-04-16T01:23:32.148Z,17.21
2024-04-16T01:24:03.687Z,17.21
2024-04-16T01:24:35.154Z,17.20
2024-04-16T01:25:06.833Z,17.20
2024-04-16T01:25:38.327Z,17.20
2024-04-16T01:26:09.762Z,17.19
2024-04-16T01:26:41.204Z,17.19
2024-04-16T01:27:12.600Z,17.19
2024-04-16T01:27:44.414Z,17.18
2024-04-16T01:28:15.869Z,17.18
2024-04-16T01:28:47.260Z,17.18
2024-04-16T01:29:18.676Z,17.17
2024-04-16T01:29:50.093Z,17.17
2024-04-16T01:30:21.505Z,17.17
2024-04-16T01:30:52.925Z,17.17
2024-04-16T01:31:25.378Z,17.17
2024-04-16T01:31:56.865Z,17.17
2024-04-16T01:32:28.392Z,17.17
2024-04-16T01:32:59.914Z,17.17
2024-04-16T01:33:31.324Z,17.17
2024-04-16T01:34:02.779Z,17.17
2024-04-16T01:34:34.493Z,17.16
2024-04-16T01:35:06.311Z,17.16
2024-04-16T01:35:37.862Z,17.16
2024-04-16T01:36:09.278Z,17.16
2024-04-16T01:36:40.700Z,17.15
2024-04-16T01:37:12.360Z,17.15
2024-04-16T01:37:43.786Z,17.14
2024-04-16T01:38:15.208Z,17.14
2024-04-16T01:38:46.650Z,17.14
2024-04-16T01:39:18.051Z,17.13
2024-04-16T01:39:49.518Z,17.13
2024-04-16T01:40:20.946Z,17.13
2024-04-16T01:40:52.354Z,17.13
2024-04-16T01:41:23.764Z,17.13
2024-04-16T01:41:55.511Z,17.13
2024-04-16T01:42:27.083Z,17.13
2024-04-16T01:42:58.480Z,17.13
2024-04-16T01:43:30.060Z,17.13
2024-04-16T01:44:02.866Z,17.13
2024-04-16T01:44:34.286Z,17.12
2024-04-16T01:45:05.707Z,17.11
2024-04-16T01:45:37.117Z,17.11
2024-04-16T01:46:09.247Z,17.10
2024-04-16T01:46:40.734Z,17.10
2024-04-16T01:47:12.239Z,17.09
2024-04-16T01:47:43.774Z,17.09
2024-04-16T01:48:15.390Z,17.08
2024-04-16T01:48:46.846Z,17.08
2024-04-16T01:49:19.434Z,17.08
2024-04-16T01:49:51.067Z,17.08
2024-04-16T01:50:22.503Z,17.08
2024-04-16T01:50:53.961Z,17.08
2024-04-16T01:51:25.394Z,17.08
2024-04-16T01:51:56.810Z,17.08
2024-04-16T01:52:28.242Z,17.08
2024-04-16T01:52:59.774Z,17.08
2024-04-16T01:53:31.190Z,17.08
2024-04-16T01:54:02.591Z,17.07
2024-04-16T01:54:34.021Z,17.07
2024-04-16T01:55:05.486Z,17.07
2024-04-16T01:55:38.546Z,17.07
2024-04-16T01:56:09.981Z,17.07
2024-04-16T01:56:41.393Z,17.07
2024-04-16T01:57:12.974Z,17.07
2024-04-16T01:57:44.420Z,17.06
2024-04-16T01:58:15.923Z,17.06
2024-04-16T01:58:47.359Z,17.06
2024-04-16T01:59:18.765Z,17.06
2024-04-16T01:59:50.380Z,17.05
2024-04-16T02:00:21.790Z,17.05
2024-04-16T02:00:59.874Z,17.05
2024-04-16T02:01:31.444Z,17.04
2024-04-16T02:02:02.948Z,17.04
2024-04-16T02:02:37.896Z,17.04
2024-04-16T02:03:09.800Z,17.04
2024-04-16T02:03:41.889Z,17.04
2024-04-16T02:04:13.508Z,17.05
2024-04-16T02:04:45.063Z,17.05
2024-04-16T02:05:16.488Z,17.05
2024-04-16T02:05:47.907Z,17.05
2024-04-16T02:06:19.325Z,17.05
2024-04-16T02:06:50.740Z,17.05
2024-04-16T02:07:22.177Z,17.04
2024-04-16T02:07:53.609Z,17.04
2024-04-16T02:08:25.214Z,17.03
2024-04-16T02:08:56.921Z,17.03
2024-04-16T02:09:28.577Z,17.03
2024-04-16T02:10:00.028Z,17.03
2024-04-16T02:10:31.503Z,17.03
2024-04-16T02:11:03.072Z,17.03
2024-04-16T02:11:34.600Z,17.02
2024-04-16T02:12:06.140Z,17.03
2024-04-16T02:12:37.716Z,17.03
2024-04-16T02:13:09.129Z,17.03
2024-04-16T02:13:40.593Z,17.03
2024-04-16T02:14:12.011Z,17.03
2024-04-16T02:14:43.405Z,17.03
2024-04-16T02:15:14.836Z,17.03
2024-04-16T02:15:46.257Z,17.04
2024-04-16T02:16:17.680Z,17.04
2024-04-16T02:16:49.124Z,17.04
2024-04-16T02:17:21.813Z,17.04
2024-04-16T02:17:53.329Z,17.05
2024-04-16T02:18:24.864Z,17.05
2024-04-16T02:18:56.334Z,17.05
2024-04-16T02:19:27.811Z,17.05
2024-04-16T02:19:59.224Z,17.05
2024-04-16T02:20:30.898Z,17.05
2024-04-16T02:21:02.372Z,17.05
2024-04-16T02:21:33.765Z,17.05
2024-04-16T02:22:05.211Z,17.04
2024-04-16T02:22:36.720Z,17.04
2024-04-16T02:23:08.284Z,17.04
2024-04-16T02:23:40.829Z,17.04
2024-04-16T02:24:12.250Z,17.04
2024-04-16T02:24:43.676Z,17.04
2024-04-16T02:25:15.612Z,17.04
2024-04-16T02:25:47.778Z,17.04
2024-04-16T02:26:19.192Z,17.04
2024-04-16T02:26:50.633Z,17.04
2024-04-16T02:27:22.025Z,17.03
2024-04-16T02:27:53.452Z,17.03
2024-04-16T02:28:24.892Z,17.03
2024-04-16T02:28:57.027Z,17.02
2024-04-16T02:29:28.461Z,17.02
2024-04-16T02:29:59.888Z,17.02
2024-04-16T02:30:31.990Z,17.01
2024-04-16T02:31:03.597Z,17.01
2024-04-16T02:31:35.091Z,17.01
2024-04-16T02:32:06.842Z,17.01
2024-04-16T02:32:38.384Z,17.00
2024-04-16T02:33:15.508Z,17.00
2024-04-16T02:33:46.937Z,16.99
2024-04-16T02:34:18.741Z,16.99
2024-04-16T02:34:50.146Z,16.99
2024-04-16T02:35:21.594Z,16.98
2024-04-16T02:35:55.518Z,16.98
2024-04-16T02:36:27.985Z,16.98
2024-04-16T02:36:59.445Z,16.97
2024-04-16T02:37:30.863Z,16.96
2024-04-16T02:38:02.317Z,16.95
2024-04-16T02:38:33.736Z,16.95
2024-04-16T02:39:05.162Z,16.94
2024-04-16T02:39:36.571Z,16.94
2024-04-16T02:40:08.254Z,16.93
2024-04-16T02:40:39.766Z,16.92
2024-04-16T02:41:11.168Z,16.92
2024-04-16T02:41:43.460Z,16.91
2024-04-16T02:42:14.901Z,16.90
2024-04-16T02:42:46.288Z,16.90
2024-04-16T02:43:17.733Z,16.89
2024-04-16T02:43:49.120Z,16.88
2024-04-16T02:44:20.537Z,16.86
2024-04-16T02:44:52.213Z,16.86
2024-04-16T02:45:23.633Z,16.84
2024-04-16T02:45:55.233Z,16.83
2024-04-16T02:46:27.590Z,16.82
2024-04-16T02:47:00.581Z,16.81
2024-04-16T02:47:33.075Z,16.81
2024-04-16T02:48:05.248Z,16.80
2024-04-16T02:48:36.670Z,16.79
2024-04-16T02:49:08.118Z,16.78
2024-04-16T02:49:39.593Z,16.77
2024-04-16T02:50:11.032Z,16.77
2024-04-16T02:50:42.451Z,16.76
2024-04-16T02:51:15.026Z,16.76
2024-04-16T02:51:46.478Z,16.76
2024-04-16T02:52:17.973Z,16.75
2024-04-16T02:52:49.450Z,16.75
2024-04-16T02:53:20.871Z,16.75
2024-04-16T02:53:52.303Z,16.75
2024-04-16T02:54:23.720Z,16.74
2024-04-16T02:54:56.185Z,16.74
2024-04-16T02:55:27.610Z,16.73
2024-04-16T02:55:59.057Z,16.72
2024-04-16T02:56:30.482Z,16.72
2024-04-16T02:57:01.916Z,16.71
2024-04-16T02:57:36.326Z,16.70
2024-04-16T02:58:07.776Z,16.70
2024-04-16T02:58:39.228Z,16.69
2024-04-16T02:59:10.648Z,16.69
2024-04-16T02:59:42.072Z,16.68
2024-04-16T03:00:13.566Z,16.68
2024-04-16T03:00:45.012Z,16.68
2024-04-16T03:01:16.453Z,16.67
2024-04-16T03:01:47.956Z,16.67
2024-04-16T03:02:19.459Z,16.67
2024-04-16T03:02:50.906Z,16.66
2024-04-16T03:03:22.339Z,16.65
2024-04-16T03:03:56.045Z,16.64
2024-04-16T03:04:27.517Z,16.64
2024-04-16T03:04:58.951Z,16.63
2024-04-16T03:05:30.425Z,16.62
2024-04-16T03:06:02.170Z,16.61
2024-04-16T03:06:33.585Z,16.61
2024-04-16T03:07:05.062Z,16.61
2024-04-16T03:07:36.570Z,16.61
2024-04-16T03:08:07.992Z,16.61
2024-04-16T03:08:39.678Z,16.60
2024-04-16T03:09:11.101Z,16.60
2024-04-16T03:09:42.510Z,16.60
2024-04-16T03:10:15.732Z,16.60
2024-04-16T03:10:47.312Z,16.59
2024-04-16T03:11:18.851Z,16.59
2024-04-16T03:11:50.363Z,16.58
2024-04-16T03:12:21.911Z,16.58
2024-04-16T03:12:53.489Z,16.57
2024-04-16T03:13:24.987Z,16.57
2024-04-16T03:13:56.377Z,16.57
2024-04-16T03:14:29.385Z,16.56
2024-04-16T03:15:01.058Z,16.55
2024-04-16T03:15:32.490Z,16.55
2024-04-16T03:16:06.992Z,16.54
2024-04-16T03:16:39.219Z,16.53
2024-04-16T03:17:10.703Z,16.53
2024-04-16T03:17:42.238Z,16.52
2024-04-16T03:18:13.775Z,16.52
2024-04-16T03:18:45.307Z,16.51
2024-04-16T03:19:16.983Z,16.51
2024-04-16T03:19:48.615Z,16.51
2024-04-16T03:20:20.026Z,16.52
2024-04-16T03:21:00.730Z,16.52
2024-04-16T03:21:32.359Z,16.51
2024-04-16T03:22:03.956Z,16.51
2024-04-16T03:22:35.510Z,16.51
2024-04-16T03:23:06.952Z,16.51
2024-04-16T03:23:38.359Z,16.51
2024-04-16T03:24:09.782Z,16.51
2024-04-16T03:24:41.192Z,16.50
2024-04-16T03:25:13.054Z,16.50
2024-04-16T03:25:44.540Z,16.50
2024-04-16T03:26:15.968Z,16.50
2024-04-16T03:26:47.421Z,16.49
2024-04-16T03:27:19.051Z,16.49
2024-04-16T03:27:50.798Z,16.48
2024-04-16T03:28:22.413Z,16.48
2024-04-16T03:28:53.875Z,16.47
2024-04-16T03:29:25.291Z,16.47
2024-04-16T03:29:56.722Z,16.46
2024-04-16T03:30:28.151Z,16.46
2024-04-16T03:30:59.592Z,16.46
2024-04-16T03:31:31.055Z,16.45
2024-04-16T03:32:02.538Z,16.45
2024-04-16T03:32:34.037Z,16.45
2024-04-16T03:33:05.602Z,16.45
2024-04-16T03:33:37.075Z,16.44
2024-04-16T03:34:08.536Z,16.44
2024-04-16T03:34:40.029Z,16.43
2024-04-16T03:35:11.475Z,16.43
2024-04-16T03:35:42.896Z,16.42
2024-04-16T03:36:14.487Z,16.42
2024-04-16T03:36:45.927Z,16.41
2024-04-16T03:37:17.392Z,16.41
2024-04-16T03:37:49.036Z,16.41
2024-04-16T03:38:20.911Z,16.40
2024-04-16T03:38:52.361Z,16.39
2024-04-16T03:39:23.755Z,16.39
2024-04-16T03:39:55.185Z,16.38
2024-04-16T03:40:26.757Z,16.38
2024-04-16T03:41:00.833Z,16.37
2024-04-16T03:41:32.257Z,16.37
2024-04-16T03:42:03.819Z,16.36
2024-04-16T03:42:35.233Z,16.35
2024-04-16T03:43:06.713Z,16.35
2024-04-16T03:43:38.238Z,16.34
2024-04-16T03:44:09.727Z,16.33
2024-04-16T03:44:41.278Z,16.32
2024-04-16T03:45:12.664Z,16.32
2024-04-16T03:45:54.011Z,16.31
2024-04-16T03:46:25.477Z,16.30
2024-04-16T03:46:56.990Z,16.30
2024-04-16T03:47:29.176Z,16.29
2024-04-16T03:48:00.772Z,16.29
2024-04-16T03:48:32.198Z,16.28
2024-04-16T03:49:03.685Z,16.28
2024-04-16T03:49:35.158Z,16.27
2024-04-16T03:50:06.672Z,16.26
2024-04-16T03:50:38.092Z,16.25
2024-04-16T03:51:09.506Z,16.25
2024-04-16T03:51:40.920Z,16.24
2024-04-16T03:52:12.463Z,16.24
2024-04-16T03:52:44.008Z,16.23
2024-04-16T03:53:15.507Z,16.22
2024-04-16T03:53:46.995Z,16.22
2024-04-16T03:54:18.427Z,16.21
2024-04-16T03:54:50.853Z,16.21
2024-04-16T03:55:22.276Z,16.20
2024-04-16T03:55:58.696Z,16.20
2024-04-16T03:56:30.127Z,16.19
2024-04-16T03:57:01.559Z,16.18
2024-04-16T03:57:32.968Z,16.18
2024-04-16T03:58:04.555Z,16.17
2024-04-16T03:58:44.100Z,16.17
2024-04-16T03:59:16.604Z,16.16
2024-04-16T04:00:06.743Z,16.16
2024-04-16T04:00:56.774Z,16.15
2024-04-16T04:01:28.223Z,16.15
2024-04-16T04:01:59.676Z,16.14
2024-04-16T04:02:31.131Z,16.14
2024-04-16T04:03:02.649Z,16.14
2024-04-16T04:03:34.339Z,16.13
2024-04-16T04:04:05.920Z,16.13
2024-04-16T04:04:37.474Z,16.12
2024-04-16T04:05:09.017Z,16.12
2024-04-16T04:05:40.439Z,16.12
2024-04-16T04:06:11.868Z,16.12
2024-04-16T04:06:43.271Z,16.11
2024-04-16T04:07:14.766Z,16.11
2024-04-16T04:07:48.005Z,16.10
2024-04-16T04:08:19.421Z,16.10
2024-04-16T04:08:50.882Z,16.09
2024-04-16T04:09:22.295Z,16.09
2024-04-16T04:09:53.720Z,16.08
2024-04-16T04:10:25.198Z,16.08
2024-04-16T04:10:56.672Z,16.07
2024-04-16T04:11:28.171Z,16.07
2024-04-16T04:11:59.619Z,16.07
2024-04-16T04:12:31.034Z,16.06
2024-04-16T04:13:02.510Z,16.06
2024-04-16T04:13:34.010Z,16.06
2024-04-16T04:14:05.436Z,16.06
2024-04-16T04:14:37.625Z,16.06
2024-04-16T04:15:09.950Z,16.05
2024-04-16T04:15:41.380Z,16.05
2024-04-16T04:16:14.241Z,16.05
2024-04-16T04:16:45.652Z,16.05
2024-04-16T04:17:17.092Z,16.05
2024-04-16T04:17:48.566Z,16.05
2024-04-16T04:18:20.117Z,16.05
2024-04-16T04:18:52.565Z,16.04
2024-04-16T04:19:23.996Z,16.04
2024-04-16T04:19:55.399Z,16.04
2024-04-16T04:20:26.830Z,16.04
2024-04-16T04:20:58.261Z,16.04
2024-04-16T04:21:29.685Z,16.03
2024-04-16T04:22:01.162Z,16.03
2024-04-16T04:22:32.766Z,16.03
2024-04-16T04:23:04.520Z,16.03
2024-04-16T04:23:35.938Z,16.03
2024-04-16T04:24:15.585Z,16.03
2024-04-16T04:24:51.499Z,16.03
2024-04-16T04:25:23.255Z,16.02
2024-04-16T04:25:54.679Z,16.02
2024-04-16T04:26:26.088Z,16.02
2024-04-16T04:26:57.501Z,16.02
2024-04-16T04:27:28.944Z,16.02
2024-04-16T04:28:00.337Z,16.02
2024-04-16T04:28:31.784Z,16.02
2024-04-16T04:29:03.205Z,16.02
2024-04-16T04:29:34.867Z,16.02
2024-04-16T04:30:07.433Z,16.01
2024-04-16T04:30:38.845Z,16.01
2024-04-16T04:31:15.144Z,16.01
2024-04-16T04:31:46.731Z,16.01
2024-04-16T04:32:19.284Z,16.01
2024-04-16T04:32:52.776Z,16.00
2024-04-16T04:33:24.825Z,16.00
2024-04-16T04:33:56.231Z,16.00
2024-04-16T04:34:27.820Z,16.00
2024-04-16T04:34:59.840Z,16.00
2024-04-16T04:35:31.307Z,16.00
2024-04-16T04:36:02.729Z,15.99
2024-04-16T04:36:34.208Z,15.99
2024-04-16T04:37:05.690Z,15.98
2024-04-16T04:37:37.207Z,15.98
2024-04-16T04:38:08.613Z,15.97
2024-04-16T04:38:40.179Z,15.97
2024-04-16T04:39:11.594Z,15.96
2024-04-16T04:39:43.624Z,15.95
2024-04-16T04:40:15.130Z,15.95
2024-04-16T04:40:46.559Z,15.95
2024-04-16T04:41:19.055Z,15.94
2024-04-16T04:41:50.476Z,15.94
2024-04-16T04:42:22.119Z,15.93
2024-04-16T04:42:55.204Z,15.92
2024-04-16T04:43:26.675Z,15.91
2024-04-16T04:43:58.135Z,15.91
2024-04-16T04:44:29.552Z,15.90
2024-04-16T04:45:01.067Z,15.90
2024-04-16T04:45:32.772Z,15.89
2024-04-16T04:46:04.252Z,15.88
2024-04-16T04:46:35.937Z,15.87
2024-04-16T04:47:07.477Z,15.87
2024-04-16T04:47:38.995Z,15.86
2024-04-16T04:48:10.585Z,15.86
2024-04-16T04:48:42.199Z,15.85
2024-04-16T04:49:13.681Z,15.84
2024-04-16T04:49:45.158Z,15.83
2024-04-16T04:50:16.590Z,15.82
2024-04-16T04:50:47.991Z,15.82
2024-04-16T04:51:19.428Z,15.82
2024-04-16T04:51:50.836Z,15.81
2024-04-16T04:52:22.279Z,15.80
2024-04-16T04:52:53.725Z,15.78
2024-04-16T04:53:25.319Z,15.77
2024-04-16T04:53:56.743Z,15.77
2024-04-16T04:54:28.185Z,15.76
2024-04-16T04:55:02.159Z,15.75
2024-04-16T04:55:33.660Z,15.75
2024-04-16T04:56:07.581Z,15.74
2024-04-16T04:56:38.966Z,15.73
2024-04-16T04:57:10.388Z,15.73
2024-04-16T04:57:42.101Z,15.73
2024-04-16T04:58:16.565Z,15.72
2024-04-16T04:58:47.993Z,15.72
2024-04-16T04:59:19.461Z,15.71
2024-04-16T04:59:50.877Z,15.71
2024-04-16T05:00:23.217Z,15.70
2024-04-16T05:00:54.666Z,15.69
2024-04-16T05:01:26.130Z,15.69
2024-04-16T05:01:59.045Z,15.68
2024-04-16T05:02:30.537Z,15.67
2024-04-16T05:03:04.592Z,15.67
2024-04-16T05:03:36.649Z,15.66
2024-04-16T05:04:08.307Z,15.65
2024-04-16T05:04:39.772Z,15.65
2024-04-16T05:05:11.172Z,15.65
2024-04-16T05:05:45.969Z,15.65
2024-04-16T05:06:17.386Z,15.64
2024-04-16T05:06:48.813Z,15.64
2024-04-16T05:07:23.278Z,15.63
2024-04-16T05:07:54.714Z,15.64
2024-04-16T05:08:28.652Z,15.63
2024-04-16T05:09:00.387Z,15.63
2024-04-16T05:09:31.791Z,15.63
2024-04-16T05:10:03.685Z,15.62
2024-04-16T05:10:35.182Z,15.62
2024-04-16T05:11:06.663Z,15.62
2024-04-16T05:11:38.138Z,15.62
2024-04-16T05:12:11.864Z,15.62
2024-04-16T05:12:43.994Z,15.62
2024-04-16T05:13:15.451Z,15.62
2024-04-16T05:13:46.916Z,15.62
2024-04-16T05:14:19.656Z,15.62
2024-04-16T05:14:51.078Z,15.62
2024-04-16T05:15:22.499Z,15.62
2024-04-16T05:15:53.929Z,15.62
2024-04-16T05:16:25.354Z,15.62
2024-04-16T05:16:56.882Z,15.61
2024-04-16T05:17:28.429Z,15.61
2024-04-16T05:18:00.507Z,15.60
2024-04-16T05:18:32.040Z,15.60
2024-04-16T05:19:03.675Z,15.60
2024-04-16T05:19:36.086Z,15.60
2024-04-16T05:20:07.617Z,15.60
2024-04-16T05:20:39.034Z,15.60
2024-04-16T05:21:12.819Z,15.59
2024-04-16T05:21:44.224Z,15.58
2024-04-16T05:22:15.681Z,15.57
2024-04-16T05:22:56.421Z,15.57
2024-04-16T05:23:27.871Z,15.57
2024-04-16T05:24:02.123Z,15.57
2024-04-16T05:24:33.983Z,15.57
2024-04-16T05:25:05.699Z,15.57
2024-04-16T05:25:37.135Z,15.56
2024-04-16T05:26:08.586Z,15.56
2024-04-16T05:26:39.987Z,15.56
2024-04-16T05:27:11.431Z,15.56
2024-04-16T05:27:44.473Z,15.55
2024-04-16T05:28:16.112Z,15.55
2024-04-16T05:28:47.529Z,15.55
2024-04-16T05:29:18.942Z,15.54
2024-04-16T05:29:50.398Z,15.54
2024-04-16T05:30:22.291Z,15.54
2024-04-16T05:30:53.826Z,15.54
2024-04-16T05:31:25.351Z,15.53
2024-04-16T05:31:56.937Z,15.53
2024-04-16T05:32:28.465Z,15.53
2024-04-16T05:32:59.916Z,15.53
2024-04-16T05:33:31.357Z,15.52
2024-04-16T05:34:02.839Z,15.51
2024-04-16T05:34:34.302Z,15.51
2024-04-16T05:35:05.850Z,15.51
2024-04-16T05:35:37.282Z,15.51
2024-04-16T05:36:08.859Z,15.50
2024-04-16T05:37:18.768Z,15.49
2024-04-16T05:37:50.183Z,15.48
2024-04-16T05:38:21.687Z,15.48
2024-04-16T05:38:53.111Z,15.48
2024-04-16T05:39:24.509Z,15.47
2024-04-16T05:39:55.922Z,15.47
2024-04-16T05:40:33.275Z,15.46
2024-04-16T05:41:04.708Z,15.45
2024-04-16T05:41:36.113Z,15.45
2024-04-16T05:42:07.530Z,15.44
2024-04-16T05:42:40.817Z,15.44
2024-04-16T05:43:12.237Z,15.44
2024-04-16T05:43:43.721Z,15.43
2024-04-16T05:44:18.274Z,15.42
2024-04-16T05:44:49.713Z,15.41
2024-04-16T05:45:21.120Z,15.40
2024-04-16T05:45:53.329Z,15.40
2024-04-16T05:46:24.829Z,15.39
2024-04-16T05:46:56.602Z,15.38
2024-04-16T05:47:28.073Z,15.38
2024-04-16T05:47:59.585Z,15.37
2024-04-16T05:48:31.021Z,15.37
2024-04-16T05:49:02.517Z,15.36
2024-04-16T05:49:34.026Z,15.36
2024-04-16T05:50:05.707Z,15.36
2024-04-16T05:50:37.119Z,15.35
2024-04-16T05:51:08.672Z,15.35
2024-04-16T05:51:40.613Z,15.35
2024-04-16T05:52:12.043Z,15.35
2024-04-16T05:52:43.513Z,15.34
2024-04-16T05:53:15.178Z,15.34
2024-04-16T05:53:46.603Z,15.34
2024-04-16T05:54:18.008Z,15.33
2024-04-16T05:54:49.704Z,15.33
2024-04-16T05:55:21.687Z,15.32
2024-04-16T05:55:53.109Z,15.32
2024-04-16T05:56:24.534Z,15.32
2024-04-16T05:56:55.955Z,15.32
2024-04-16T05:57:27.369Z,15.31
2024-04-16T05:57:58.776Z,15.31
2024-04-16T05:58:30.225Z,15.31
2024-04-16T05:59:01.685Z,15.31
2024-04-16T05:59:33.083Z,15.31
2024-04-16T06:00:05.562Z,15.31
2024-04-16T06:00:37.597Z,15.30
2024-04-16T06:01:09.093Z,15.29
2024-04-16T06:01:43.688Z,15.28
2024-04-16T06:02:15.220Z,15.27
2024-04-16T06:02:46.698Z,15.27
2024-04-16T06:03:18.508Z,15.27
2024-04-16T06:03:50.032Z,15.26
2024-04-16T06:04:22.099Z,15.25
2024-04-16T06:04:53.555Z,15.24
2024-04-16T06:05:28.376Z,15.24
2024-04-16T06:06:02.692Z,15.23
2024-04-16T06:06:37.143Z,15.22
2024-04-16T06:07:08.618Z,15.22
2024-04-16T06:07:40.188Z,15.22
2024-04-16T06:08:14.483Z,15.21
2024-04-16T06:08:45.914Z,15.20
2024-04-16T06:09:35.429Z,15.20
2024-04-16T06:10:07.331Z,15.19
2024-04-16T06:10:44.539Z,15.18
2024-04-16T06:11:16.814Z,15.18
2024-04-16T06:11:48.320Z,15.18
2024-04-16T06:12:22.061Z,15.18
2024-04-16T06:12:56.543Z,15.18
2024-04-16T06:13:27.992Z,15.18
2024-04-16T06:13:59.542Z,15.18
2024-04-16T06:14:31.026Z,15.17
2024-04-16T06:15:02.894Z,15.17
2024-04-16T06:15:34.339Z,15.16
2024-04-16T06:16:05.940Z,15.16
2024-04-16T06:16:37.475Z,15.16
2024-04-16T06:17:08.933Z,15.16
2024-04-16T06:17:40.496Z,15.15
2024-04-16T06:18:14.704Z,15.15
2024-04-16T06:18:53.500Z,15.15
2024-04-16T06:19:27.345Z,15.15
2024-04-16T06:19:58.906Z,15.15
2024-04-16T06:20:39.468Z,15.15
2024-04-16T06:21:11.080Z,15.14
2024-04-16T06:21:48.104Z,15.14
2024-04-16T06:22:29.844Z,15.14
2024-04-16T06:23:04.119Z,15.14
2024-04-16T06:23:35.602Z,15.14
2024-04-16T06:24:10.119Z,15.15
2024-04-16T06:24:43.884Z,15.15
2024-04-16T06:25:17.710Z,15.16
2024-04-16T06:25:49.390Z,15.17
2024-04-16T06:26:23.571Z,15.18
2024-04-16T06:26:57.277Z,15.18
2024-04-16T06:27:31.890Z,15.18
2024-04-16T06:28:06.574Z,15.19
2024-04-16T06:28:38.438Z,15.19
2024-04-16T06:29:12.504Z,15.19
2024-04-16T06:29:44.038Z,15.19
2024-04-16T06:30:15.586Z,15.20
2024-04-16T06:30:47.225Z,15.20
2024-04-16T06:31:18.657Z,15.20
2024-04-16T06:31:50.187Z,15.20
2024-04-16T06:32:21.803Z,15.20
2024-04-16T06:32:55.766Z,15.21
2024-04-16T06:33:28.672Z,15.21
2024-04-16T06:34:00.245Z,15.22
2024-04-16T06:34:32.056Z,15.22
2024-04-16T06:35:03.862Z,15.22
2024-04-16T06:35:35.737Z,15.22
2024-04-16T06:36:10.191Z,15.22
2024-04-16T06:36:44.278Z,15.22
2024-04-16T06:37:17.376Z,15.22
2024-04-16T06:37:48.834Z,15.22
2024-04-16T06:38:30.602Z,15.22
2024-04-16T06:39:02.090Z,15.21
2024-04-16T06:39:33.506Z,15.20
2024-04-16T06:40:06.582Z,15.20
2024-04-16T06:40:38.250Z,15.19
2024-04-16T06:41:09.851Z,15.19
2024-04-16T06:41:47.671Z,15.19
2024-04-16T06:42:22.174Z,15.19
2024-04-16T06:42:54.552Z,15.18
2024-04-16T06:43:26.969Z,15.18
2024-04-16T06:43:58.380Z,15.18
2024-04-16T06:44:29.950Z,15.18
2024-04-16T06:45:01.344Z,15.18
2024-04-16T06:45:32.937Z,15.18
2024-04-16T06:46:04.563Z,15.17
2024-04-16T06:46:36.071Z,15.17
2024-04-16T06:47:07.556Z,15.17
2024-04-16T06:47:38.994Z,15.17
2024-04-16T06:48:10.483Z,15.17
2024-04-16T06:48:42.000Z,15.16
2024-04-16T06:49:18.410Z,15.16
2024-04-16T06:49:50.920Z,15.16
2024-04-16T06:50:22.421Z,15.16
2024-04-16T06:50:53.857Z,15.16
2024-04-16T06:51:27.790Z,15.17
2024-04-16T06:52:02.785Z,15.17
2024-04-16T06:52:34.294Z,15.17
2024-04-16T06:53:05.785Z,15.17